createdAt,value
2019-03-18T00:02:52.561Z,6.73
2019-03-18T00:07:58.087Z,6.60
2019-03-18T00:13:03.550Z,6.48
2019-03-18T00:18:09.060Z,6.38
2019-03-18T00:23:14.569Z,6.29
2019-03-18T00:28:20.048Z,6.23
2019-03-18T00:33:25.537Z,6.18
2019-03-18T00:38:31.228Z,6.14
2019-03-18T00:43:36.755Z,6.10
2019-03-18T00:48:42.425Z,6.04
2019-03-18T00:53:47.897Z,6.02
2019-03-18T00:58:53.510Z,5.99
2019-03-18T01:03:58.994Z,5.97
2019-03-18T01:09:05.850Z,5.96
2019-03-18T01:14:11.536Z,5.95
2019-03-18T01:19:17.007Z,5.94
2019-03-18T01:24:22.685Z,5.90
2019-03-18T01:29:28.159Z,5.89
2019-03-18T01:34:33.845Z,5.89
2019-03-18T01:39:39.390Z,5.89
2019-03-18T01:44:45.069Z,5.90
2019-03-18T01:49:50.826Z,5.89
2019-03-18T01:54:56.354Z,5.88
2019-03-18T02:00:02.022Z,5.87
2019-03-18T02:05:07.625Z,5.85
2019-03-18T02:10:13.348Z,5.81
2019-03-18T02:15:18.839Z,5.79
2019-03-18T02:20:24.417Z,5.75
2019-03-18T02:25:29.982Z,5.74
2019-03-18T02:30:35.531Z,5.72
2019-03-18T02:35:41.054Z,5.71
2019-03-18T02:40:46.518Z,5.69
2019-03-18T02:45:52.077Z,5.69
2019-03-18T02:50:57.613Z,5.70
2019-03-18T02:56:03.076Z,5.70
2019-03-18T03:01:08.563Z,5.70
2019-03-18T03:06:14.083Z,5.70
2019-03-18T03:11:19.673Z,5.68
2019-03-18T03:16:27.181Z,5.70
2019-03-18T03:21:32.325Z,5.69
2019-03-18T03:26:37.825Z,5.68
2019-03-18T03:31:43.344Z,5.69
2019-03-18T03:36:48.854Z,5.68
2019-03-18T03:41:54.337Z,5.71
2019-03-18T03:46:59.803Z,5.75
2019-03-18T03:52:05.319Z,5.80
2019-03-18T03:57:10.790Z,5.86
2019-03-18T04:02:16.286Z,5.94
2019-03-18T04:07:21.789Z,6.10
2019-03-18T04:12:27.295Z,6.29
2019-03-18T04:17:32.761Z,6.47
2019-03-18T04:22:38.247Z,6.68
2019-03-18T04:27:43.826Z,6.87
2019-03-18T04:32:49.500Z,7.04
2019-03-18T04:37:55.301Z,7.19
2019-03-18T04:43:00.843Z,7.30
2019-03-18T04:48:06.345Z,7.40
2019-03-18T04:53:11.834Z,7.48
2019-03-18T04:58:17.321Z,7.56
2019-03-18T05:03:22.794Z,7.67
2019-03-18T05:08:28.276Z,7.76
2019-03-18T05:13:33.797Z,7.83
2019-03-18T05:18:39.373Z,7.88
2019-03-18T05:23:44.856Z,7.91
2019-03-18T05:28:50.454Z,7.96
2019-03-18T05:33:56.034Z,7.98
2019-03-18T05:39:01.521Z,7.99
2019-03-18T05:44:08.029Z,8.02
2019-03-18T05:49:13.805Z,8.04
2019-03-18T05:54:19.304Z,8.08
2019-03-18T05:59:24.828Z,8.10
2019-03-18T06:04:30.532Z,8.12
2019-03-18T06:09:36.078Z,8.17
2019-03-18T06:14:41.573Z,8.21
2019-03-18T06:19:47.057Z,8.29
2019-03-18T06:24:52.563Z,8.36
2019-03-18T06:29:58.111Z,8.33
2019-03-18T06:35:03.582Z,8.42
2019-03-18T06:40:09.652Z,8.61
2019-03-18T06:45:15.137Z,8.75
2019-03-18T06:50:20.678Z,8.81
2019-03-18T06:55:26.375Z,8.86
2019-03-18T07:00:31.871Z,8.84
2019-03-18T07:05:37.369Z,9.73
2019-03-18T07:10:42.909Z,12.27
2019-03-18T07:15:48.404Z,12.97
2019-03-18T07:20:53.991Z,12.52
2019-03-18T07:25:59.620Z,11.95
2019-03-18T07:31:05.164Z,11.48
2019-03-18T07:36:10.650Z,11.16
2019-03-18T07:41:16.233Z,11.08
2019-03-18T07:46:21.855Z,11.31
2019-03-18T07:51:27.628Z,12.24
2019-03-18T07:56:33.220Z,15.56
2019-03-18T08:01:38.841Z,19.47
2019-03-18T08:06:44.495Z,21.28
2019-03-18T08:11:49.997Z,21.77
2019-03-18T08:16:55.595Z,22.25
2019-03-18T08:22:01.252Z,22.31
2019-03-18T08:27:06.757Z,22.12
2019-03-18T08:32:12.274Z,21.93
2019-03-18T08:37:17.766Z,23.34
2019-03-18T08:42:23.266Z,24.94
2019-03-18T08:47:28.794Z,25.12
2019-03-18T08:52:34.395Z,26.40
2019-03-18T08:57:40.010Z,28.40
2019-03-18T09:02:45.578Z,28.03
2019-03-18T09:07:51.044Z,25.64
2019-03-18T09:12:56.571Z,22.84
2019-03-18T09:18:02.154Z,20.45
2019-03-18T09:23:07.656Z,18.81
2019-03-18T09:28:13.145Z,17.71
2019-03-18T09:33:18.634Z,17.28
2019-03-18T09:38:24.119Z,19.25
2019-03-18T09:43:29.672Z,20.97
2019-03-18T09:48:35.306Z,21.69
2019-03-18T09:53:40.828Z,22.72
2019-03-18T09:58:46.323Z,22.17
2019-03-18T10:03:51.813Z,21.27
2019-03-18T10:08:57.402Z,19.85
2019-03-18T10:14:03.059Z,18.89
2019-03-18T10:19:08.756Z,17.71
2019-03-18T10:24:14.310Z,16.67
2019-03-18T10:29:21.715Z,16.01
2019-03-18T10:34:27.204Z,16.73
2019-03-18T10:39:32.727Z,16.51
2019-03-18T10:44:38.299Z,16.22
2019-03-18T10:49:46.548Z,15.97
2019-03-18T10:54:51.118Z,15.70
2019-03-18T10:59:56.717Z,15.40
2019-03-18T11:05:02.297Z,15.37
2019-03-18T11:10:08.702Z,15.91
2019-03-18T11:15:14.292Z,16.52
2019-03-18T11:20:19.817Z,16.64
2019-03-18T11:25:25.331Z,16.60
2019-03-18T11:30:30.859Z,16.37
2019-03-18T11:35:36.446Z,16.22
2019-03-18T11:40:41.960Z,15.82
2019-03-18T11:45:47.450Z,14.99
2019-03-18T11:50:53.175Z,14.17
2019-03-18T11:55:58.678Z,13.71
2019-03-18T12:01:04.166Z,13.59
2019-03-18T12:06:09.666Z,13.77
2019-03-18T12:11:15.137Z,14.12
2019-03-18T12:16:20.649Z,14.41
2019-03-18T12:21:26.220Z,14.48
2019-03-18T12:26:31.706Z,14.43
2019-03-18T12:31:37.200Z,14.43
2019-03-18T12:36:42.747Z,14.38
2019-03-18T12:41:48.284Z,14.00
2019-03-18T12:46:54.077Z,13.59
2019-03-18T12:51:59.610Z,13.33
2019-03-18T12:57:05.327Z,13.15
2019-03-18T13:02:10.883Z,13.04
2019-03-18T13:07:16.611Z,13.05
2019-03-18T13:12:22.097Z,13.06
2019-03-18T13:17:27.604Z,13.33
2019-03-18T13:22:33.257Z,13.58
2019-03-18T13:27:38.808Z,13.93
2019-03-18T13:32:44.427Z,14.36
2019-03-18T13:37:49.898Z,14.66
2019-03-18T13:42:55.450Z,14.71
2019-03-18T13:48:01.077Z,14.48
2019-03-18T13:53:06.641Z,13.88
2019-03-18T13:58:12.168Z,13.17
2019-03-18T14:03:17.773Z,12.60
2019-03-18T14:08:23.282Z,12.19
2019-03-18T14:13:28.857Z,12.03
2019-03-18T14:18:34.364Z,12.12
2019-03-18T14:23:40.071Z,12.34
2019-03-18T14:28:45.586Z,12.68
2019-03-18T14:33:51.216Z,12.95
2019-03-18T14:38:56.704Z,13.06
2019-03-18T14:44:02.442Z,13.21
2019-03-18T14:49:08.011Z,13.45
2019-03-18T14:54:13.715Z,13.63
2019-03-18T14:59:19.345Z,13.55
2019-03-18T15:04:24.835Z,13.37
2019-03-18T15:09:30.347Z,13.13
2019-03-18T15:14:35.880Z,12.92
2019-03-18T15:19:41.427Z,12.69
2019-03-18T15:24:46.975Z,12.54
2019-03-18T15:29:52.536Z,12.42
2019-03-18T15:34:58.014Z,12.37
2019-03-18T15:40:03.877Z,12.38
2019-03-18T15:45:11.118Z,12.44
2019-03-18T15:50:17.813Z,12.63
2019-03-18T15:55:26.143Z,12.99
2019-03-18T16:00:31.903Z,13.21
2019-03-18T16:05:37.751Z,13.31
2019-03-18T16:10:43.606Z,13.47
2019-03-18T16:15:49.502Z,13.57
2019-03-18T16:20:55.009Z,13.68
2019-03-18T16:26:00.623Z,13.69
2019-03-18T16:31:06.112Z,13.59
2019-03-18T16:36:11.696Z,13.38
2019-03-18T16:41:17.291Z,13.17
2019-03-18T16:46:22.853Z,12.92
2019-03-18T16:51:28.437Z,12.64
2019-03-18T16:56:33.916Z,12.44
2019-03-18T17:01:39.517Z,12.27
2019-03-18T17:06:45.039Z,12.08
2019-03-18T17:11:50.621Z,11.89
2019-03-18T17:16:56.203Z,11.69
2019-03-18T17:22:01.783Z,11.45
2019-03-18T17:27:07.353Z,11.22
2019-03-18T17:32:12.952Z,10.98
2019-03-18T17:37:18.438Z,10.76
2019-03-18T17:42:23.968Z,10.55
2019-03-18T17:47:29.484Z,10.34
2019-03-18T17:52:35.099Z,10.12
2019-03-18T17:57:40.786Z,9.93
2019-03-18T18:02:46.299Z,9.79
2019-03-18T18:07:51.835Z,9.67
2019-03-18T18:12:57.410Z,9.57
2019-03-18T18:18:02.958Z,9.45
2019-03-18T18:23:14.099Z,9.39
2019-03-18T18:28:15.669Z,9.30
2019-03-18T18:33:21.229Z,9.24
2019-03-18T18:38:26.828Z,9.17
2019-03-18T18:43:32.301Z,9.05
2019-03-18T18:48:37.788Z,8.93
2019-03-18T18:53:43.297Z,8.82
2019-03-18T18:58:48.788Z,8.72
2019-03-18T19:03:54.284Z,8.59
2019-03-18T19:08:59.834Z,8.48
2019-03-18T19:14:05.327Z,8.38
2019-03-18T19:19:11.063Z,8.27
2019-03-18T19:24:16.748Z,8.16
2019-03-18T19:29:22.428Z,8.07
2019-03-18T19:34:28.062Z,8.04
2019-03-18T19:39:33.520Z,8.03
2019-03-18T19:44:39.031Z,8.00
2019-03-18T19:49:44.572Z,7.93
2019-03-18T19:54:50.170Z,7.84
2019-03-18T19:59:55.769Z,7.76
2019-03-18T20:05:01.281Z,7.68
2019-03-18T20:10:08.769Z,7.63
2019-03-18T20:15:14.637Z,7.55
2019-03-18T20:20:20.349Z,7.50
2019-03-18T20:25:26.094Z,7.43
2019-03-18T20:30:31.772Z,7.36
2019-03-18T20:35:37.334Z,7.29
2019-03-18T20:40:42.835Z,7.22
2019-03-18T20:45:48.382Z,7.16
2019-03-18T20:50:56.547Z,7.12
2019-03-18T20:56:01.331Z,7.08
2019-03-18T21:01:06.928Z,7.04
2019-03-18T21:06:12.471Z,6.98
2019-03-18T21:11:17.978Z,6.94
2019-03-18T21:16:24.007Z,6.90
2019-03-18T21:21:29.587Z,6.84
2019-03-18T21:26:35.128Z,6.77
2019-03-18T21:31:40.677Z,6.71
2019-03-18T21:36:46.178Z,6.65
2019-03-18T21:41:51.729Z,6.58
2019-03-18T21:46:57.258Z,6.53
2019-03-18T21:52:02.745Z,6.48
2019-03-18T21:57:08.260Z,6.41
2019-03-18T22:02:14.175Z,6.37
2019-03-18T22:07:19.784Z,6.30
2019-03-18T22:12:25.682Z,6.25
2019-03-18T22:17:31.214Z,6.20
2019-03-18T22:22:36.727Z,6.13
2019-03-18T22:27:42.259Z,6.08
2019-03-18T22:32:47.822Z,6.04
2019-03-18T22:37:53.302Z,5.99
2019-03-18T22:42:58.881Z,5.96
2019-03-18T22:48:04.602Z,5.93
2019-03-18T22:53:10.127Z,5.89
2019-03-18T22:58:15.805Z,5.86
2019-03-18T23:03:23.050Z,5.81
2019-03-18T23:08:28.737Z,5.78
2019-03-18T23:13:34.208Z,5.75
2019-03-18T23:18:39.768Z,5.70
2019-03-18T23:23:45.254Z,5.66
2019-03-18T23:28:50.779Z,5.61
2019-03-18T23:33:56.321Z,5.58
2019-03-18T23:39:01.881Z,5.55
2019-03-18T23:44:07.357Z,5.50
2019-03-18T23:49:12.843Z,5.43
2019-03-18T23:54:18.341Z,5.37
2019-03-18T23:59:23.840Z,5.32
